Time;durP1;ratioP1;P1;durP2;ratioP2;P2;SDS_P1;SDS_P2;PMS_P1;PMS_P2;Temp;Humidity;BMP_temperature;BMP_pressure;BME280_temperature;BME280_humidity;BME280_pressure;Samples;Min_cycle;Max_cycle;Signal;HPM_P1;HPM_P2
2022/01/04 00:00:20;;;;;;;17.00;15.60;;;;;;;6.92;100.00;98170.03;2086299;28;20218;-78
2022/01/04 00:01:22;;;;;;;16.77;15.30;;;;;;;6.90;100.00;98178.28;2086289;28;20250;-77
2022/01/04 00:02:25;;;;;;;17.25;15.77;;;;;;;6.84;100.00;98178.66;2086580;28;20225;-76
2022/01/04 00:03:28;;;;;;;16.35;14.95;;;;;;;6.84;100.00;98174.16;2094624;28;20226;-76
2022/01/04 00:04:29;;;;;;;17.10;15.45;;;;;;;6.83;100.00;98175.22;2086732;28;20226;-76
2022/01/04 00:05:30;;;;;;;16.80;15.50;;;;;;;6.84;100.00;98168.84;2086392;28;20677;-77
2022/01/04 00:06:31;;;;;;;15.73;14.38;;;;;;;6.90;100.00;98166.91;2086216;28;20230;-77
2022/01/04 00:07:34;;;;;;;14.97;13.87;;;;;;;6.93;100.00;98176.91;2086377;28;20311;-77
2022/01/04 00:08:35;;;;;;;15.82;14.77;;;;;;;6.87;100.00;98162.97;2086724;28;20227;-77
2022/01/04 00:09:40;;;;;;;16.50;15.20;;;;;;;6.84;100.00;98162.75;2086005;28;20306;-77
2022/01/04 00:10:42;;;;;;;16.13;14.82;;;;;;;6.87;100.00;98162.97;2086053;28;20231;-77
2022/01/04 00:11:58;;;;;;;16.83;15.23;;;;;;;6.89;100.00;98167.97;2087137;28;20225;-77
2022/01/04 00:14:18;;;;;;;15.98;14.52;;;;;;;6.90;100.00;98159.72;2088005;28;20711;-77
2022/01/04 00:15:20;;;;;;;15.52;14.32;;;;;;;6.90;100.00;98156.28;2088005;28;20214;-77
2022/01/04 00:16:22;;;;;;;15.73;14.10;;;;;;;6.89;100.00;98166.09;2079659;28;20227;-77
2022/01/04 00:17:28;;;;;;;15.23;13.90;;;;;;;6.88;100.00;98153.16;2079671;28;20643;-77
2022/01/04 00:18:30;;;;;;;16.58;15.18;;;;;;;6.85;100.00;98156.38;2087909;28;20218;-77
2022/01/04 00:19:31;;;;;;;15.88;14.60;;;;;;;6.86;100.00;98155.28;2087986;28;20223;-77
2022/01/04 00:20:33;;;;;;;16.43;14.93;;;;;;;6.84;100.00;98158.25;2079844;28;20696;-77
2022/01/04 00:21:33;;;;;;;16.40;15.13;;;;;;;6.85;100.00;98153.72;2088098;28;20230;-77
2022/01/04 00:22:36;;;;;;;16.30;14.90;;;;;;;6.85;100.00;98148.41;2087831;28;20214;-77
2022/01/04 00:23:38;;;;;;;15.55;14.25;;;;;;;6.86;100.00;98152.63;2087297;28;20265;-77
2022/01/04 00:24:41;;;;;;;17.17;15.82;;;;;;;6.86;100.00;98152.63;2087845;28;20280;-77
2022/01/04 00:25:42;;;;;;;16.63;15.18;;;;;;;6.84;100.00;98155.59;2088733;28;20257;-77
2022/01/04 00:26:43;;;;;;;15.55;14.07;;;;;;;6.85;100.00;98153.72;2087787;28;20238;-77
2022/01/04 00:27:44;;;;;;;15.60;14.30;;;;;;;6.88;100.00;98147.84;2079504;28;20583;-77
2022/01/04 00:28:46;;;;;;;15.13;14.07;;;;;;;6.85;100.00;98148.41;2079683;28;20247;-77
2022/01/04 00:29:47;;;;;;;15.73;14.32;;;;;;;6.82;100.00;98149.00;2087769;28;20739;-77
2022/01/04 00:30:49;;;;;;;15.23;13.93;;;;;;;6.83;100.00;98145.28;2079622;28;20589;-77
2022/01/04 00:31:49;;;;;;;15.30;14.18;;;;;;;6.83;100.00;98151.38;2087670;28;20637;-77
2022/01/04 00:32:51;;;;;;;15.00;13.90;;;;;;;6.82;100.00;98156.97;2087451;28;20236;-77
2022/01/04 00:33:52;;;;;;;15.25;14.15;;;;;;;6.83;100.00;98147.94;2087671;28;20231;-76
2022/01/04 00:34:54;;;;;;;15.60;14.40;;;;;;;6.86;100.00;98155.28;2088572;28;20223;-77
2022/01/04 00:35:54;;;;;;;15.77;14.45;;;;;;;6.79;100.00;98140.56;2087733;28;20603;-77
2022/01/04 00:36:58;;;;;;;15.57;14.20;;;;;;;6.86;100.00;98155.28;2087971;28;20325;-77
2022/01/04 00:38:01;;;;;;;15.32;14.13;;;;;;;6.84;100.00;98144.97;2087807;28;20223;-77
2022/01/04 00:39:02;;;;;;;14.77;13.68;;;;;;;6.81;100.00;98137.63;2087818;28;20936;-77
2022/01/04 00:40:04;;;;;;;15.52;14.23;;;;;;;6.84;100.00;98150.28;2087802;28;20235;-77
2022/01/04 00:41:06;;;;;;;15.73;14.65;;;;;;;6.83;100.00;98142.63;2087777;28;20227;-77
2022/01/04 00:42:07;;;;;;;16.00;14.60;;;;;;;6.85;100.00;98146.56;2079084;28;20227;-76
2022/01/04 00:43:09;;;;;;;15.33;14.23;;;;;;;6.85;100.00;98143.13;2079434;28;20223;-77
2022/01/04 00:44:09;;;;;;;15.65;14.55;;;;;;;6.80;100.00;98147.44;2087858;28;20222;-76
2022/01/04 00:45:13;;;;;;;15.23;14.13;;;;;;;6.78;100.00;98139.00;2088501;28;20218;-77
2022/01/04 00:46:17;;;;;;;14.52;13.60;;;;;;;6.84;100.00;98149.50;2088545;28;20458;-77
2022/01/04 00:47:25;;;;;;;15.23;14.13;;;;;;;6.85;100.00;98146.56;2088517;28;20668;-77
2022/01/04 00:49:45;;;;;;;15.32;13.90;;;;;;;6.86;100.00;98144.69;2087237;28;20281;-77
2022/01/04 00:50:46;;;;;;;15.07;14.07;;;;;;;6.88;100.00;98138.03;2079430;28;20718;-76
2022/01/04 00:51:51;;;;;;;15.37;14.27;;;;;;;6.91;100.00;98137.44;2087900;28;20218;-77
2022/01/04 00:52:51;;;;;;;14.38;13.45;;;;;;;6.86;100.00;98126.91;2088017;28;20667;-77
2022/01/04 00:53:54;;;;;;;14.57;13.47;;;;;;;6.89;100.00;98130.84;2088419;28;20557;-76
2022/01/04 00:54:55;;;;;;;16.02;14.82;;;;;;;6.88;100.00;98134.59;2088421;28;20356;-77
2022/01/04 00:55:57;;;;;;;15.40;14.50;;;;;;;6.84;100.00;98130.94;2087654;28;20354;-76
2022/01/04 00:56:58;;;;;;;14.68;13.65;;;;;;;6.85;100.00;98132.50;2079384;28;20662;-76
2022/01/04 00:58:00;;;;;;;15.60;14.55;;;;;;;6.86;100.00;98120.81;2087710;28;20230;-77
2022/01/04 00:59:04;;;;;;;15.40;14.30;;;;;;;6.88;100.00;98121.34;2088500;28;20222;-77
2022/01/04 01:00:08;;;;;;;14.88;13.95;;;;;;;6.88;100.00;98124.78;2087891;28;20581;-76
2022/01/04 01:01:10;;;;;;;16.73;15.27;;;;;;;6.87;100.00;98125.06;2079276;28;20230;-77
2022/01/04 01:02:11;;;;;;;14.70;13.70;;;;;;;6.90;100.00;98132.44;2087734;28;20676;-77
2022/01/04 01:03:12;;;;;;;14.43;13.43;;;;;;;6.88;100.00;98121.34;2088402;28;20609;-77
2022/01/04 01:04:13;;;;;;;14.68;13.60;;;;;;;6.90;100.00;98132.44;2088352;28;20564;-77
2022/01/04 01:05:17;;;;;;;15.50;14.30;;;;;;;6.88;100.00;98121.34;2087649;28;20373;-76
2022/01/04 01:06:19;;;;;;;15.52;14.10;;;;;;;6.87;100.00;98130.38;2087639;28;20707;-77
2022/01/04 01:07:21;;;;;;;14.57;13.68;;;;;;;6.85;100.00;98127.22;2087809;28;20306;-77
2022/01/04 01:08:21;;;;;;;14.98;13.90;;;;;;;6.87;100.00;98130.38;2087196;28;20231;-76
2022/01/04 01:09:29;;;;;;;15.40;14.30;;;;;;;6.88;100.00;98124.00;2086636;28;20313;-77
2022/01/04 01:11:53;;;;;;;15.00;14.10;;;;;;;6.85;100.00;98119.25;2081317;28;20290;-77
2022/01/04 01:12:54;;;;;;;15.05;13.52;;;;;;;6.87;100.00;98120.56;2086636;28;20235;-76
2022/01/04 01:13:56;;;;;;;14.80;13.80;;;;;;;6.88;100.00;98122.13;2087049;28;20230;-77
2022/01/04 01:14:57;;;;;;;14.77;13.88;;;;;;;6.88;100.00;98113.38;2087058;28;20257;-76
2022/01/04 01:15:58;;;;;;;15.33;14.37;;;;;;;6.89;100.00;98117.59;2086872;28;20309;-76
2022/01/04 01:16:59;;;;;;;15.48;14.38;;;;;;;6.86;100.00;98107.56;2086852;28;20226;-77
2022/01/04 01:18:01;;;;;;;15.83;14.40;;;;;;;6.86;100.00;98118.16;2087159;28;20215;-76
2022/01/04 01:19:03;;;;;;;15.98;14.98;;;;;;;6.81;100.00;98108.47;2087844;28;20233;-76
2022/01/04 01:20:07;;;;;;;15.60;14.38;;;;;;;6.79;100.00;98102.69;2087599;28;20673;-76
2022/01/04 01:21:09;;;;;;;16.08;15.07;;;;;;;6.80;100.00;98110.34;2086572;28;20227;-76
2022/01/04 01:22:10;;;;;;;15.85;14.85;;;;;;;6.78;100.00;98112.50;2078724;28;20234;-76
2022/01/04 01:23:11;;;;;;;15.47;14.47;;;;;;;6.76;100.00;98108.53;2086996;28;20707;-77
2022/01/04 01:24:12;;;;;;;16.95;15.75;;;;;;;6.74;100.00;98116.78;2087764;28;20230;-77
2022/01/04 01:25:16;;;;;;;16.33;15.13;;;;;;;6.74;100.00;98111.50;2086469;28;20374;-77
2022/01/04 01:26:19;;;;;;;15.75;14.70;;;;;;;6.72;100.00;98112.88;2087168;28;20222;-76
2022/01/04 01:27:21;;;;;;;15.73;14.52;;;;;;;6.69;100.00;98108.16;2086831;28;20222;-76
2022/01/04 01:28:24;;;;;;;14.95;14.05;;;;;;;6.65;100.00;98107.97;2086455;28;20554;-77
2022/01/04 01:29:25;;;;;;;14.98;13.98;;;;;;;6.65;100.00;98101.88;2095002;28;20233;-76
2022/01/04 01:30:28;;;;;;;15.10;14.07;;;;;;;6.64;100.00;98106.38;2087937;28;20227;-77
2022/01/04 01:31:30;;;;;;;15.98;15.02;;;;;;;6.61;100.00;98104.34;2086787;28;20696;-77
2022/01/04 01:32:31;;;;;;;15.52;14.50;;;;;;;6.61;100.00;98101.69;2086870;28;20245;-76
2022/01/04 01:33:33;;;;;;;16.27;15.17;;;;;;;6.59;100.00;98105.69;2087603;28;20227;-77
2022/01/04 01:34:34;;;;;;;16.50;15.30;;;;;;;6.58;100.00;98093.53;2086798;28;20731;-76
2022/01/04 01:35:37;;;;;;;15.80;14.80;;;;;;;6.57;100.00;98099.91;2087093;28;20272;-76
2022/01/04 01:36:38;;;;;;;16.08;15.05;;;;;;;6.53;100.00;98097.06;2094889;28;20232;-76
2022/01/04 01:37:39;;;;;;;16.17;15.18;;;;;;;6.53;100.00;98098.94;2095286;28;20218;-76
2022/01/04 01:38:41;;;;;;;16.20;15.03;;;;;;;6.48;100.00;98094.50;2087544;28;20237;-76
2022/01/04 01:39:42;;;;;;;15.45;14.45;;;;;;;6.49;100.00;98104.00;2086410;28;20226;-76
2022/01/04 01:40:53;;;;;;;16.00;14.90;;;;;;;6.47;100.00;98106.16;2086869;28;20265;-76
2022/01/04 01:41:54;;;;;;;15.77;14.68;;;;;;;6.44;100.00;98107.56;2094751;28;20229;-76
2022/01/04 01:42:55;;;;;;;15.63;14.60;;;;;;;6.43;100.00;98105.19;2086845;28;20310;-76
2022/01/04 01:43:56;;;;;;;16.98;15.88;;;;;;;6.41;100.00;98117.94;2086901;28;20227;-77
2022/01/04 01:44:58;;;;;;;16.30;15.30;;;;;;;6.37;100.00;98111.66;2087621;28;20314;-76
2022/01/04 01:46:00;;;;;;;16.75;15.65;;;;;;;6.36;100.00;98115.38;2087674;28;20676;-76
2022/01/04 01:47:00;;;;;;;17.17;16.08;;;;;;;6.34;100.00;98120.16;2087459;28;20245;-76
2022/01/04 01:48:05;;;;;;;17.17;16.07;;;;;;;6.31;100.00;98118.09;2086758;28;20223;-76
2022/01/04 01:49:06;;;;;;;16.77;15.70;;;;;;;6.27;100.00;98109.19;2086631;28;20258;-75
2022/01/04 01:50:09;;;;;;;17.37;16.20;;;;;;;6.23;100.00;98106.31;2086493;28;20230;-76
2022/01/04 01:51:15;;;;;;;18.40;17.30;;;;;;;6.19;100.00;98115.94;2087424;28;20673;-75
2022/01/04 01:52:17;;;;;;;18.13;16.92;;;;;;;6.15;100.00;98105.09;2087613;28;20233;-75
2022/01/04 01:53:19;;;;;;;21.23;19.85;;;;;;;6.16;100.00;98103.25;2087410;28;20609;-75
2022/01/04 01:54:20;;;;;;;23.00;21.60;;;;;;;6.11;100.00;98106.00;2087661;28;20576;-75
2022/01/04 01:55:25;;;;;;;21.90;20.40;;;;;;;6.08;100.00;98110.00;2087401;28;20231;-75
2022/01/04 01:56:29;;;;;;;25.10;22.98;;;;;;;6.05;100.00;98102.63;2087200;28;20238;-75
2022/01/04 01:57:30;;;;;;;25.45;23.42;;;;;;;5.99;100.00;98108.28;2087519;28;20733;-75
2022/01/04 01:58:32;;;;;;;24.50;22.70;;;;;;;5.94;100.00;98102.00;2087329;28;20585;-75
2022/01/04 01:59:32;;;;;;;23.65;21.77;;;;;;;5.94;100.00;98111.81;2086746;28;20290;-76
2022/01/04 02:00:34;;;;;;;25.63;23.90;;;;;;;5.91;100.00;98104.47;2087061;28;20249;-76
2022/01/04 02:01:37;;;;;;;25.80;23.90;;;;;;;5.91;100.00;98109.75;2086902;28;20234;-76
2022/01/04 02:02:37;;;;;;;24.30;22.70;;;;;;;5.87;100.00;98106.06;2087148;28;20225;-76
2022/01/04 02:03:39;;;;;;;26.60;24.70;;;;;;;5.83;100.00;98103.22;2087571;28;20233;-76
2022/01/04 02:04:40;;;;;;;25.85;24.02;;;;;;;5.83;100.00;98110.38;2094881;28;20222;-76
2022/01/04 02:05:42;;;;;;;25.57;23.57;;;;;;;5.79;100.00;98107.50;2094886;28;20312;-76
2022/01/04 02:06:42;;;;;;;26.08;24.02;;;;;;;5.76;100.00;98107.31;2087575;28;20561;-76
2022/01/04 02:07:47;;;;;;;26.50;24.60;;;;;;;5.76;100.00;98110.75;2087483;28;20303;-76
2022/01/04 02:08:49;;;;;;;24.67;23.00;;;;;;;5.69;100.00;98112.94;2045981;28;1196485;-77
2022/01/04 02:10:01;;;;;;;25.00;23.30;;;;;;;5.67;100.00;98104.53;2087088;28;20218;-76
2022/01/04 02:11:03;;;;;;;28.90;27.02;;;;;;;5.60;100.00;98110.16;2087113;28;20214;-77
2022/01/04 02:12:06;;;;;;;25.67;23.85;;;;;;;5.65;100.00;98111.97;2087694;28;20215;-76
2022/01/04 02:13:08;;;;;;;26.30;24.60;;;;;;;5.58;100.00;98109.69;2087400;28;20734;-76
2022/01/04 02:14:09;;;;;;;28.90;26.83;;;;;;;5.53;100.00;98111.59;2087834;28;20257;-76
2022/01/04 02:15:13;;;;;;;26.17;24.37;;;;;;;5.56;100.00;98109.19;2086994;28;20766;-76
2022/01/04 02:16:16;;;;;;;25.90;23.92;;;;;;;5.53;100.00;98111.59;2079207;28;20590;-76
2022/01/04 02:17:19;;;;;;;28.88;26.92;;;;;;;5.49;100.00;98116.69;2079462;28;20620;-76
2022/01/04 02:18:20;;;;;;;26.20;24.30;;;;;;;5.48;100.00;98116.97;2087024;28;20226;-76
2022/01/04 02:19:21;;;;;;;28.60;26.70;;;;;;;5.46;100.00;98113.81;2087834;28;20215;-75
2022/01/04 02:20:24;;;;;;;31.43;29.13;;;;;;;5.45;100.00;98110.38;2086688;28;20714;-76
2022/01/04 02:21:25;;;;;;;29.90;27.48;;;;;;;5.43;100.00;98101.16;2078920;28;20732;-76
2022/01/04 02:22:27;;;;;;;26.73;24.97;;;;;;;5.41;100.00;98100.66;2087106;28;20596;-76
2022/01/04 02:23:29;;;;;;;27.67;25.73;;;;;;;5.42;100.00;98100.38;2078982;28;20227;-76
2022/01/04 02:24:31;;;;;;;27.40;25.60;;;;;;;5.43;100.00;98109.09;2086965;28;20229;-76
2022/01/04 02:25:33;;;;;;;26.05;24.02;;;;;;;5.38;100.00;98105.44;2078999;28;20231;-76
2022/01/04 02:26:34;;;;;;;27.08;25.00;;;;;;;5.38;100.00;98102.78;2086956;28;20214;-76
2022/01/04 02:27:37;;;;;;;28.10;26.23;;;;;;;5.39;100.00;98100.94;2087782;28;20215;-76
2022/01/04 02:28:39;;;;;;;26.17;24.05;;;;;;;5.40;100.00;98099.88;2087232;28;20233;-76
2022/01/04 02:29:42;;;;;;;25.60;23.75;;;;;;;5.37;100.00;98100.44;2087788;28;20222;-76
2022/01/04 02:30:43;;;;;;;25.60;23.67;;;;;;;5.36;100.00;98099.66;2087796;28;20717;-76
2022/01/04 02:31:44;;;;;;;25.53;23.73;;;;;;;5.36;100.00;98093.56;2087584;28;20580;-76
2022/01/04 02:32:46;;;;;;;24.85;23.05;;;;;;;5.34;100.00;98096.50;2087096;28;20240;-76
2022/01/04 02:33:47;;;;;;;25.45;23.52;;;;;;;5.33;100.00;98094.16;2087011;28;20223;-76
2022/01/04 02:34:50;;;;;;;25.55;23.77;;;;;;;5.31;100.00;98091.78;2087690;28;20673;-76
2022/01/04 02:35:53;;;;;;;27.13;25.17;;;;;;;5.28;100.00;98087.06;2087737;28;20735;-76
2022/01/04 02:36:58;;;;;;;28.50;26.30;;;;;;;5.25;100.00;98087.63;2085750;28;20227;-76
2022/01/04 02:38:01;;;;;;;27.90;25.75;;;;;;;5.25;100.00;98084.22;2087073;28;20665;-76
2022/01/04 02:39:02;;;;;;;26.23;24.33;;;;;;;5.27;100.00;98082.06;2087091;28;20693;-76
2022/01/04 02:40:04;;;;;;;27.03;25.13;;;;;;;5.19;100.00;98077.41;2086894;28;20559;-76
2022/01/04 02:41:05;;;;;;;29.35;27.20;;;;;;;5.17;100.00;98080.34;2087687;28;20217;-76
2022/01/04 02:42:07;;;;;;;27.37;25.20;;;;;;;5.16;100.00;98088.56;2087665;28;20301;-76
2022/01/04 02:43:09;;;;;;;26.65;24.83;;;;;;;5.17;100.00;98079.56;2085892;28;20292;-76
2022/01/04 02:44:12;;;;;;;26.45;24.58;;;;;;;5.22;100.00;98082.16;2086901;28;20317;-76
2022/01/04 02:45:13;;;;;;;26.08;24.27;;;;;;;5.19;100.00;98077.41;2087534;28;20568;-76
2022/01/04 02:46:14;;;;;;;26.85;24.85;;;;;;;5.22;100.00;98082.16;2087627;28;20276;-76
2022/01/04 02:47:17;;;;;;;27.10;25.20;;;;;;;5.22;100.00;98084.78;2086863;28;20284;-75
2022/01/04 02:48:17;;;;;;;25.80;24.00;;;;;;;5.19;100.00;98077.41;2086878;28;20215;-76
2022/01/04 02:49:19;;;;;;;26.97;25.07;;;;;;;5.20;100.00;98078.97;2087713;28;20306;-76
2022/01/04 02:50:20;;;;;;;25.70;24.00;;;;;;;5.18;100.00;98081.91;2087683;28;20688;-76
2022/01/04 02:51:23;;;;;;;24.98;23.27;;;;;;;5.20;100.00;98073.69;2086808;28;20602;-76
2022/01/04 02:52:24;;;;;;;26.40;24.55;;;;;;;5.19;100.00;98078.19;2078661;28;20593;-76
2022/01/04 02:53:26;;;;;;;27.10;25.07;;;;;;;5.18;100.00;98065.25;2078423;28;20318;-76
2022/01/04 02:54:26;;;;;;;26.67;24.80;;;;;;;5.18;100.00;98073.19;2086820;28;20222;-76
2022/01/04 02:55:28;;;;;;;26.77;24.87;;;;;;;5.16;100.00;98064.75;2087573;28;20305;-76
2022/01/04 02:56:29;;;;;;;27.20;25.13;;;;;;;5.16;100.00;98068.19;2086765;28;20229;-76
2022/01/04 02:57:33;;;;;;;27.37;25.40;;;;;;;5.16;100.00;98067.41;2086701;28;20237;-76
2022/01/04 02:58:34;;;;;;;27.58;25.67;;;;;;;5.13;100.00;98063.47;2087496;28;20245;-76
2022/01/04 02:59:35;;;;;;;27.50;25.60;;;;;;;5.14;100.00;98059.75;2087495;28;20318;-76
2022/01/04 03:00:36;;;;;;;28.75;26.52;;;;;;;5.10;100.00;98059.53;2086753;28;20724;-76
2022/01/04 03:01:38;;;;;;;27.10;25.20;;;;;;;5.09;100.00;98054.53;2078038;28;20605;-76
2022/01/04 03:02:39;;;;;;;27.50;25.55;;;;;;;5.11;100.00;98055.81;2078545;28;20219;-76
2022/01/04 03:03:43;;;;;;;27.95;25.98;;;;;;;5.11;100.00;98058.47;2086736;28;20650;-75
2022/01/04 03:04:43;;;;;;;27.75;25.88;;;;;;;5.11;100.00;98052.38;2087457;28;20232;-76
2022/01/04 03:05:45;;;;;;;27.60;25.77;;;;;;;5.11;100.00;98053.16;2087376;28;20219;-76
2022/01/04 03:06:47;;;;;;;29.52;27.52;;;;;;;5.16;100.00;98051.53;2086654;28;20696;-77
2022/01/04 03:07:49;;;;;;;26.45;24.55;;;;;;;5.11;100.00;98039.94;2078530;28;20252;-77
2022/01/04 03:08:50;;;;;;;29.73;27.63;;;;;;;5.11;100.00;98047.09;2086265;28;20234;-76
2022/01/04 03:09:51;;;;;;;31.40;29.40;;;;;;;5.07;100.00;98043.47;2086842;28;20219;-76
2022/01/04 03:10:52;;;;;;;30.75;28.65;;;;;;;5.08;100.00;98029.94;2094525;28;20230;-77
2022/01/04 03:11:56;;;;;;;30.37;28.17;;;;;;;5.07;100.00;98040.81;2094937;28;20222;-76
2022/01/04 03:12:57;;;;;;;29.95;27.95;;;;;;;5.09;100.00;98042.09;2086489;28;20237;-77
2022/01/04 03:13:59;;;;;;;29.60;27.60;;;;;;;5.09;100.00;98036.03;2086497;28;20705;-76
2022/01/04 03:14:59;;;;;;;28.05;26.15;;;;;;;5.09;100.00;98031.53;2078400;28;20223;-76
2022/01/04 03:16:01;;;;;;;28.87;26.57;;;;;;;5.07;100.00;98033.66;2078389;28;20310;-76
2022/01/04 03:17:03;;;;;;;30.85;28.77;;;;;;;5.10;100.00;98040.25;2078255;28;20219;-76
2022/01/04 03:18:05;;;;;;;30.00;28.00;;;;;;;5.09;100.00;98031.53;2078171;28;20232;-76
2022/01/04 03:19:07;;;;;;;29.55;27.20;;;;;;;5.09;100.00;98026.25;2078001;28;20219;-76
2022/01/04 03:20:10;;;;;;;28.10;26.00;;;;;;;5.08;100.00;98019.38;2086117;28;20225;-76
2022/01/04 03:21:11;;;;;;;27.73;25.77;;;;;;;5.10;100.00;98019.09;2086607;28;20218;-76
2022/01/04 03:22:14;;;;;;;27.90;25.70;;;;;;;5.13;100.00;98017.75;2087360;28;20764;-76
2022/01/04 03:23:15;;;;;;;27.20;25.30;;;;;;;5.10;100.00;98011.94;2086539;28;20311;-76
2022/01/04 03:24:17;;;;;;;26.83;24.83;;;;;;;5.10;100.00;98009.31;2086488;28;20226;-76
2022/01/04 03:25:22;;;;;;;27.98;25.80;;;;;;;5.10;100.00;98011.94;2086497;28;20226;-77
2022/01/04 03:26:24;;;;;;;29.00;26.88;;;;;;;5.06;100.00;98008.31;2086375;28;20229;-76
2022/01/04 03:27:25;;;;;;;29.50;27.30;;;;;;;5.09;100.00;98005.09;2087268;28;20234;-76
2022/01/04 03:28:26;;;;;;;28.75;26.55;;;;;;;5.10;100.00;98004.00;2087122;28;20226;-76
2022/01/04 03:29:28;;;;;;;28.63;26.57;;;;;;;5.08;100.00;98000.88;2086482;28;20241;-76
2022/01/04 03:30:29;;;;;;;28.83;26.63;;;;;;;5.09;100.00;98001.66;2086582;28;20240;-76
2022/01/04 03:31:31;;;;;;;28.60;26.60;;;;;;;5.09;100.00;97991.09;2086396;28;20230;-76
2022/01/04 03:32:32;;;;;;;28.75;26.70;;;;;;;5.09;100.00;97983.94;2086725;28;20214;-76
2022/01/04 03:33:35;;;;;;;26.90;25.00;;;;;;;5.07;100.00;97986.09;2087172;28;20219;-76
2022/01/04 03:34:36;;;;;;;26.88;24.90;;;;;;;5.07;100.00;97983.44;2087329;28;20596;-75
2022/01/04 03:35:37;;;;;;;28.87;26.77;;;;;;;5.06;100.00;97978.44;2086902;28;20277;-75
2022/01/04 03:36:39;;;;;;;27.95;26.02;;;;;;;5.09;100.00;97980.50;2087218;28;20233;-75
2022/01/04 03:37:42;;;;;;;29.17;27.20;;;;;;;5.10;100.00;97980.22;2085964;28;20249;-75
2022/01/04 03:38:43;;;;;;;28.83;26.73;;;;;;;5.13;100.00;97984.16;2078257;28;20215;-76
2022/01/04 03:39:45;;;;;;;28.80;26.87;;;;;;;5.10;100.00;97974.94;2086526;28;20229;-75
2022/01/04 03:40:47;;;;;;;29.38;27.40;;;;;;;5.14;100.00;97974.38;2087292;28;20733;-75
2022/01/04 03:41:50;;;;;;;28.05;25.85;;;;;;;5.13;100.00;97967.53;2086496;28;20628;-75
2022/01/04 03:42:52;;;;;;;28.10;26.20;;;;;;;5.16;100.00;97970.38;2078591;28;20227;-75
2022/01/04 03:43:53;;;;;;;29.70;27.50;;;;;;;5.16;100.00;97972.22;2086115;28;20230;-75
2022/01/04 03:44:54;;;;;;;28.63;26.63;;;;;;;5.15;100.00;97970.66;2086324;28;20222;-75
2022/01/04 03:45:55;;;;;;;27.90;25.65;;;;;;;5.16;100.00;97972.22;2086444;28;20598;-75
2022/01/04 03:46:57;;;;;;;28.20;26.13;;;;;;;5.16;100.00;97972.22;2087210;28;20318;-76
2022/01/04 03:47:58;;;;;;;26.40;24.50;;;;;;;5.14;100.00;97956.66;2086189;28;20242;-76
2022/01/04 03:49:00;;;;;;;27.97;25.90;;;;;;;5.19;100.00;97966.34;2086575;28;20298;-75
2022/01/04 03:50:01;;;;;;;26.08;24.23;;;;;;;5.26;100.00;97966.78;2086365;28;20559;-75
2022/01/04 03:51:04;;;;;;;27.17;25.07;;;;;;;5.22;100.00;97969.22;2078489;28;20265;-75
2022/01/04 03:52:05;;;;;;;26.92;25.00;;;;;;;5.24;100.00;97975.00;2086427;28;20238;-76
2022/01/04 03:53:14;;;;;;;25.40;23.60;;;;;;;5.22;100.00;97971.09;2086077;28;20226;-76
2022/01/04 03:54:15;;;;;;;26.65;24.65;;;;;;;5.24;100.00;97966.28;2078603;28;20582;-75
2022/01/04 03:55:16;;;;;;;25.10;23.40;;;;;;;5.27;100.00;97968.34;2086522;28;20214;-75
2022/01/04 03:56:18;;;;;;;25.43;23.70;;;;;;;5.24;100.00;97961.78;2086371;28;20250;-76
2022/01/04 03:57:19;;;;;;;25.63;23.73;;;;;;;5.27;100.00;97960.41;2086537;28;20218;-76
2022/01/04 03:58:20;;;;;;;25.70;24.00;;;;;;;5.28;100.00;97956.69;2087309;28;20301;-76
2022/01/04 03:59:23;;;;;;;24.67;22.67;;;;;;;5.26;100.00;97953.56;2087042;28;20571;-76
2022/01/04 04:00:26;;;;;;;24.13;22.42;;;;;;;5.27;100.00;97957.78;2085801;28;20226;-76
2022/01/04 04:01:27;;;;;;;23.65;21.98;;;;;;;5.24;100.00;97959.13;2078593;28;20261;-76
2022/01/04 04:02:29;;;;;;;23.57;21.77;;;;;;;5.27;100.00;97960.41;2086381;28;20218;-76
2022/01/04 04:03:29;;;;;;;24.40;22.58;;;;;;;5.26;100.00;97951.69;2086183;28;20233;-76
2022/01/04 04:04:31;;;;;;;26.37;23.97;;;;;;;5.22;100.00;97942.00;2086339;28;20306;-76
2022/01/04 04:05:32;;;;;;;24.92;23.23;;;;;;;5.24;100.00;97947.78;2087050;28;20214;-76
2022/01/04 04:06:34;;;;;;;24.83;22.93;;;;;;;5.23;100.00;97938.28;2087125;28;20229;-76
2022/01/04 04:07:34;;;;;;;23.77;22.00;;;;;;;5.26;100.00;97937.69;2087030;28;20719;-76
2022/01/04 04:08:39;;;;;;;22.97;21.37;;;;;;;5.28;100.00;97936.31;2086183;28;20269;-76
2022/01/04 04:09:40;;;;;;;25.35;22.90;;;;;;;5.36;100.00;97934.88;2086003;28;20760;-76
2022/01/04 04:10:42;;;;;;;24.83;23.02;;;;;;;5.36;100.00;97940.16;2086176;28;20302;-76
2022/01/04 04:11:42;;;;;;;24.70;22.90;;;;;;;5.32;100.00;97939.97;2086272;28;20271;-76
2022/01/04 04:12:45;;;;;;;24.27;22.53;;;;;;;5.30;100.00;97936.84;2087129;28;20223;-76
2022/01/04 04:13:48;;;;;;;25.83;23.77;;;;;;;5.31;100.00;97934.97;2086991;28;20229;-76
2022/01/04 04:14:50;;;;;;;25.13;23.33;;;;;;;5.29;100.00;97931.81;2087124;28;20268;-76
2022/01/04 04:15:51;;;;;;;24.02;22.30;;;;;;;5.32;100.00;97928.63;2086394;28;20214;-76
2022/01/04 04:16:52;;;;;;;25.13;23.17;;;;;;;5.29;100.00;97934.47;2085817;28;20650;-76
2022/01/04 04:17:54;;;;;;;25.23;23.17;;;;;;;5.29;100.00;97940.53;2087050;28;20648;-76
2022/01/04 04:18:54;;;;;;;24.30;22.50;;;;;;;5.32;100.00;97942.63;2086281;28;20269;-76
2022/01/04 04:19:56;;;;;;;25.20;23.30;;;;;;;5.34;100.00;97937.81;2086251;28;20697;-76
2022/01/04 04:20:58;;;;;;;26.00;24.10;;;;;;;5.33;100.00;97935.47;2078109;28;20250;-77
2022/01/04 04:21:59;;;;;;;24.35;22.52;;;;;;;5.34;100.00;97937.03;2086341;28;20223;-76
2022/01/04 04:23:00;;;;;;;25.13;23.23;;;;;;;5.34;100.00;97934.38;2086137;28;20305;-76
2022/01/04 04:24:04;;;;;;;25.77;23.77;;;;;;;5.34;100.00;97931.75;2086339;28;20218;-76
2022/01/04 04:25:05;;;;;;;25.50;23.60;;;;;;;5.34;100.00;97926.47;2086147;28;20222;-76
2022/01/04 04:26:07;;;;;;;24.75;22.42;;;;;;;5.34;100.00;97931.75;2086325;28;20719;-76
2022/01/04 04:27:08;;;;;;;24.52;22.58;;;;;;;5.33;100.00;97936.25;2086598;28;20301;-76
2022/01/04 04:28:12;;;;;;;24.10;22.40;;;;;;;5.34;100.00;97935.19;2086108;28;20688;-76
2022/01/04 04:29:13;;;;;;;24.52;22.58;;;;;;;5.33;100.00;97938.13;2086603;28;20234;-76
2022/01/04 04:30:14;;;;;;;26.53;24.43;;;;;;;5.34;100.00;97926.47;2094649;28;20297;-76
2022/01/04 04:31:15;;;;;;;25.17;23.27;;;;;;;5.32;100.00;97928.63;2086100;28;20579;-76
2022/01/04 04:32:17;;;;;;;25.80;23.50;;;;;;;5.30;100.00;97931.56;2078006;28;20310;-76
2022/01/04 04:33:18;;;;;;;26.27;23.90;;;;;;;5.28;100.00;97923.09;2077621;28;20220;-76
2022/01/04 04:34:20;;;;;;;25.03;22.83;;;;;;;5.28;100.00;97928.38;2078169;28;20302;-76
2022/01/04 04:35:22;;;;;;;25.17;23.02;;;;;;;5.28;100.00;97932.91;2078146;28;20234;-76
2022/01/04 04:36:24;;;;;;;25.35;23.42;;;;;;;5.31;100.00;97929.69;2085969;28;20222;-76
2022/01/04 04:37:25;;;;;;;25.25;23.33;;;;;;;5.27;100.00;97934.75;2086127;28;20226;-76
2022/01/04 04:38:27;;;;;;;24.70;22.80;;;;;;;5.25;100.00;97928.97;2086299;28;20227;-76
2022/01/04 04:39:29;;;;;;;24.27;22.50;;;;;;;5.28;100.00;97933.69;2087012;28;20226;-76
2022/01/04 04:40:30;;;;;;;22.83;21.23;;;;;;;5.27;100.00;97928.69;2086044;28;20239;-76
2022/01/04 04:41:33;;;;;;;22.88;21.15;;;;;;;5.27;100.00;97920.75;2086013;28;20747;-76
2022/01/04 04:42:36;;;;;;;24.67;22.88;;;;;;;5.27;100.00;97926.81;2086327;28;20222;-77
2022/01/04 04:43:36;;;;;;;25.77;23.77;;;;;;;5.28;100.00;97922.31;2086293;28;20230;-76
2022/01/04 04:44:38;;;;;;;24.00;22.10;;;;;;;5.27;100.00;97923.41;2085870;28;20243;-76
2022/01/04 04:45:40;;;;;;;23.67;22.08;;;;;;;5.25;100.00;97920.25;2086123;28;20272;-76
2022/01/04 04:46:40;;;;;;;22.73;21.08;;;;;;;5.26;100.00;97927.91;2086240;28;20222;-76
2022/01/04 04:47:44;;;;;;;22.60;20.90;;;;;;;5.28;100.00;97923.09;2086913;28;20714;-76
2022/01/04 04:48:45;;;;;;;22.15;20.55;;;;;;;5.29;100.00;97929.16;2086879;28;20228;-76